sensor_id;sensor_type;location;lat;lon;timestamp;pressure;altitude;pressure_sealevel;temperature;humidity
54266;BME280;40836;39.770;2.714;2022-09-09T00:04:41;101329.75;;;25.50;66.66
54266;BME280;40836;39.770;2.714;2022-09-09T00:07:25;101350.28;;;25.52;66.70
54266;BME280;40836;39.770;2.714;2022-09-09T00:15:20;101345.88;;;25.44;66.32
54266;BME280;40836;39.770;2.714;2022-09-09T00:17:53;101339.91;;;25.38;66.58
54266;BME280;40836;39.770;2.714;2022-09-09T00:23:24;101348.63;;;25.44;66.28
54266;BME280;40836;39.770;2.714;2022-09-09T00:28:27;101345.06;;;25.40;66.89
54266;BME280;40836;39.770;2.714;2022-09-09T00:30:55;101348.91;;;25.28;67.06
54266;BME280;40836;39.770;2.714;2022-09-09T00:33:24;101343.38;;;25.28;66.80
54266;BME280;40836;39.770;2.714;2022-09-09T00:36:00;101330.31;;;25.22;66.56
54266;BME280;40836;39.770;2.714;2022-09-09T00:43:49;101340.53;;;25.18;66.37
54266;BME280;40836;39.770;2.714;2022-09-09T00:46:47;101337.00;;;25.17;66.62
54266;BME280;40836;39.770;2.714;2022-09-09T00:49:29;101334.88;;;25.03;67.52
54266;BME280;40836;39.770;2.714;2022-09-09T00:57:32;101322.94;;;24.96;67.26
54266;BME280;40836;39.770;2.714;2022-09-09T01:06:02;101337.91;;;24.91;67.47
54266;BME280;40836;39.770;2.714;2022-09-09T01:11:26;101339.38;;;24.81;67.55
54266;BME280;40836;39.770;2.714;2022-09-09T01:14:24;101328.31;;;24.78;67.36
54266;BME280;40836;39.770;2.714;2022-09-09T01:17:20;101333.78;;;24.74;67.13
54266;BME280;40836;39.770;2.714;2022-09-09T01:22:29;101313.31;;;24.75;67.06
54266;BME280;40836;39.770;2.714;2022-09-09T01:27:32;101329.13;;;24.82;67.07
54266;BME280;40836;39.770;2.714;2022-09-09T01:29:58;101333.13;;;24.88;67.08
54266;BME280;40836;39.770;2.714;2022-09-09T01:37:59;101334.66;;;24.82;66.90
54266;BME280;40836;39.770;2.714;2022-09-09T01:40:25;101331.47;;;24.80;67.02
54266;BME280;40836;39.770;2.714;2022-09-09T01:42:52;101324.38;;;24.79;67.60
54266;BME280;40836;39.770;2.714;2022-09-09T01:45:18;101324.38;;;24.79;67.09
54266;BME280;40836;39.770;2.714;2022-09-09T01:47:45;101325.94;;;24.80;66.82
54266;BME280;40836;39.770;2.714;2022-09-09T01:50:13;101321.94;;;24.74;66.87
54266;BME280;40836;39.770;2.714;2022-09-09T01:52:40;101325.94;;;24.80;66.21
54266;BME280;40836;39.770;2.714;2022-09-09T01:55:08;101320.75;;;24.71;66.53
54266;BME280;40836;39.770;2.714;2022-09-09T01:57:41;101327.44;;;24.74;66.08
54266;BME280;40836;39.770;2.714;2022-09-09T02:00:12;101332.69;;;24.82;66.43
54266;BME280;40836;39.770;2.714;2022-09-09T02:05:38;101333.06;;;24.81;66.42
54266;BME280;40836;39.770;2.714;2022-09-09T02:11:24;101328.53;;;24.62;66.34
54266;BME280;40836;39.770;2.714;2022-09-09T02:13:57;101319.81;;;24.60;66.64
54266;BME280;40836;39.770;2.714;2022-09-09T02:16:41;101325.41;;;24.67;66.29
54266;BME280;40836;39.770;2.714;2022-09-09T02:19:29;101323.31;;;24.53;67.20
54266;BME280;40836;39.770;2.714;2022-09-09T02:21:57;101314.13;;;24.42;66.76
54266;BME280;40836;39.770;2.714;2022-09-09T02:24:26;101322.13;;;24.54;66.38
54266;BME280;40836;39.770;2.714;2022-09-09T02:26:54;101330.41;;;24.54;66.69
54266;BME280;40836;39.770;2.714;2022-09-09T02:29:30;101326.81;;;24.50;66.33
54266;BME280;40836;39.770;2.714;2022-09-09T02:31:59;101330.34;;;24.51;66.86
54266;BME280;40836;39.770;2.714;2022-09-09T02:34:29;101324.00;;;24.47;66.58
54266;BME280;40836;39.770;2.714;2022-09-09T02:36:57;101321.94;;;24.40;67.09
54266;BME280;40836;39.770;2.714;2022-09-09T02:39:22;101313.56;;;24.29;67.06
54266;BME280;40836;39.770;2.714;2022-09-09T02:41:48;101320.72;;;24.37;67.47
54266;BME280;40836;39.770;2.714;2022-09-09T02:44:15;101321.47;;;24.34;67.17
54266;BME280;40836;39.770;2.714;2022-09-09T02:49:28;101308.31;;;24.20;67.61
54266;BME280;40836;39.770;2.714;2022-09-09T02:52:05;101315.59;;;24.36;67.08
54266;BME280;40836;39.770;2.714;2022-09-09T02:54:36;101315.03;;;24.23;67.59
54266;BME280;40836;39.770;2.714;2022-09-09T02:57:16;101314.25;;;24.23;66.97
54266;BME280;40836;39.770;2.714;2022-09-09T02:59:44;101322.88;;;24.21;67.31
54266;BME280;40836;39.770;2.714;2022-09-09T03:02:10;101322.44;;;24.19;66.76
54266;BME280;40836;39.770;2.714;2022-09-09T03:04:39;101325.16;;;24.15;66.48
54266;BME280;40836;39.770;2.714;2022-09-09T03:07:05;101293.00;;;23.93;66.61
54266;BME280;40836;39.770;2.714;2022-09-09T03:09:30;101300.63;;;24.03;66.82
54266;BME280;40836;39.770;2.714;2022-09-09T03:11:58;101321.22;;;24.13;66.55
54266;BME280;40836;39.770;2.714;2022-09-09T03:14:23;101311.69;;;24.07;65.75
54266;BME280;40836;39.770;2.714;2022-09-09T03:16:52;101293.00;;;23.93;65.72
54266;BME280;40836;39.770;2.714;2022-09-09T03:19:18;101321.56;;;24.11;65.85
54266;BME280;40836;39.770;2.714;2022-09-09T03:21:45;101319.97;;;24.07;65.90
54266;BME280;40836;39.770;2.714;2022-09-09T03:24:12;101318.38;;;24.09;66.99
54266;BME280;40836;39.770;2.714;2022-09-09T03:26:37;101319.34;;;23.90;67.07
54266;BME280;40836;39.770;2.714;2022-09-09T03:29:04;101324.91;;;23.94;67.32
54266;BME280;40836;39.770;2.714;2022-09-09T03:31:32;101323.78;;;23.98;67.39
54266;BME280;40836;39.770;2.714;2022-09-09T03:33:58;101322.66;;;24.03;67.11
54266;BME280;40836;39.770;2.714;2022-09-09T03:36:25;101330.44;;;23.97;66.92
54266;BME280;40836;39.770;2.714;2022-09-09T03:38:51;101328.34;;;23.87;67.38
54266;BME280;40836;39.770;2.714;2022-09-09T03:41:16;101330.75;;;23.92;67.83
54266;BME280;40836;39.770;2.714;2022-09-09T03:43:42;101331.91;;;23.88;67.65
54266;BME280;40836;39.770;2.714;2022-09-09T03:46:08;101324.84;;;23.90;67.66
54266;BME280;40836;39.770;2.714;2022-09-09T03:48:33;101328.31;;;23.84;67.73
54266;BME280;40836;39.770;2.714;2022-09-09T03:50:59;101327.53;;;23.87;67.26
54266;BME280;40836;39.770;2.714;2022-09-09T03:53:26;101328.41;;;23.91;67.39
54266;BME280;40836;39.770;2.714;2022-09-09T03:55:54;101321.22;;;23.86;67.67
54266;BME280;40836;39.770;2.714;2022-09-09T03:58:21;101324.00;;;23.86;67.28
54266;BME280;40836;39.770;2.714;2022-09-09T04:01:02;101326.00;;;23.89;67.24
54266;BME280;40836;39.770;2.714;2022-09-09T04:03:29;101322.09;;;23.67;68.10
54266;BME280;40836;39.770;2.714;2022-09-09T04:05:56;101317.91;;;23.73;67.72
54266;BME280;40836;39.770;2.714;2022-09-09T04:08:23;101323.06;;;23.75;67.77
54266;BME280;40836;39.770;2.714;2022-09-09T04:10:52;101324.16;;;23.70;67.63
54266;BME280;40836;39.770;2.714;2022-09-09T04:13:18;101328.56;;;23.75;67.96
54266;BME280;40836;39.770;2.714;2022-09-09T04:15:54;101321.53;;;23.78;68.28
54266;BME280;40836;39.770;2.714;2022-09-09T04:18:20;101321.00;;;23.68;68.50
54266;BME280;40836;39.770;2.714;2022-09-09T04:20:47;101322.00;;;23.60;68.32
54266;BME280;40836;39.770;2.714;2022-09-09T04:23:13;101312.16;;;23.59;68.56
54266;BME280;40836;39.770;2.714;2022-09-09T04:25:44;101311.78;;;23.61;69.18
54266;BME280;40836;39.770;2.714;2022-09-09T04:28:09;101316.59;;;23.67;69.09
54266;BME280;40836;39.770;2.714;2022-09-09T04:30:35;101318.47;;;23.60;69.19
54266;BME280;40836;39.770;2.714;2022-09-09T04:33:01;101301.78;;;23.49;68.99
54266;BME280;40836;39.770;2.714;2022-09-09T04:35:26;101319.69;;;23.62;68.56
54266;BME280;40836;39.770;2.714;2022-09-09T04:37:52;101309.47;;;23.63;69.03
54266;BME280;40836;39.770;2.714;2022-09-09T04:40:18;101315.75;;;23.63;69.00
54266;BME280;40836;39.770;2.714;2022-09-09T04:42:43;101322.44;;;23.62;68.87
54266;BME280;40836;39.770;2.714;2022-09-09T04:45:09;101317.66;;;23.59;69.00
54266;BME280;40836;39.770;2.714;2022-09-09T04:47:36;101304.84;;;23.44;68.99
54266;BME280;40836;39.770;2.714;2022-09-09T04:50:02;101324.66;;;23.53;68.65
54266;BME280;40836;39.770;2.714;2022-09-09T04:52:28;101310.25;;;23.37;69.17
54266;BME280;40836;39.770;2.714;2022-09-09T04:54:53;101327.06;;;23.55;68.82
54266;BME280;40836;39.770;2.714;2022-09-09T04:57:19;101325.19;;;23.62;68.85
54266;BME280;40836;39.770;2.714;2022-09-09T04:59:45;101323.53;;;23.58;68.83
54266;BME280;40836;39.770;2.714;2022-09-09T05:02:11;101327.47;;;23.57;69.27
54266;BME280;40836;39.770;2.714;2022-09-09T05:04:37;101325.13;;;23.59;68.63
54266;BME280;40836;39.770;2.714;2022-09-09T05:07:02;101314.69;;;23.45;68.97
54266;BME280;40836;39.770;2.714;2022-09-09T05:09:27;101331.44;;;23.59;68.97
54266;BME280;40836;39.770;2.714;2022-09-09T05:11:54;101323.38;;;23.47;69.21
54266;BME280;40836;39.770;2.714;2022-09-09T05:14:20;101338.41;;;23.53;69.16
54266;BME280;40836;39.770;2.714;2022-09-09T05:16:45;101306.94;;;23.27;68.90
54266;BME280;40836;39.770;2.714;2022-09-09T05:19:12;101333.59;;;23.46;68.60
54266;BME280;40836;39.770;2.714;2022-09-09T05:21:37;101331.63;;;23.47;68.57
54266;BME280;40836;39.770;2.714;2022-09-09T05:24:03;101328.19;;;23.53;68.76
54266;BME280;40836;39.770;2.714;2022-09-09T05:26:28;101331.69;;;23.50;68.97
54266;BME280;40836;39.770;2.714;2022-09-09T05:28:57;101323.25;;;23.40;68.87
54266;BME280;40836;39.770;2.714;2022-09-09T05:31:24;101314.56;;;23.38;68.95
54266;BME280;40836;39.770;2.714;2022-09-09T05:33:53;101308.66;;;23.36;68.81
54266;BME280;40836;39.770;2.714;2022-09-09T05:36:20;101329.38;;;23.52;68.54
54266;BME280;40836;39.770;2.714;2022-09-09T05:38:47;101322.53;;;23.43;68.63
54266;BME280;40836;39.770;2.714;2022-09-09T05:41:13;101332.91;;;23.53;69.34
54266;BME280;40836;39.770;2.714;2022-09-09T05:43:43;101341.59;;;23.55;69.47
54266;BME280;40836;39.770;2.714;2022-09-09T05:46:17;101328.88;;;23.47;69.51
54266;BME280;40836;39.770;2.714;2022-09-09T05:48:44;101340.91;;;23.62;69.22
54266;BME280;40836;39.770;2.714;2022-09-09T05:51:17;101336.03;;;23.51;69.55
54266;BME280;40836;39.770;2.714;2022-09-09T05:53:44;101353.81;;;23.58;69.65
54266;BME280;40836;39.770;2.714;2022-09-09T05:56:12;101354.81;;;23.69;69.87
54266;BME280;40836;39.770;2.714;2022-09-09T05:58:41;101360.75;;;23.71;69.13
54266;BME280;40836;39.770;2.714;2022-09-09T06:01:38;101363.56;;;23.74;68.83
54266;BME280;40836;39.770;2.714;2022-09-09T06:04:06;101362.09;;;23.81;69.11
54266;BME280;40836;39.770;2.714;2022-09-09T06:06:34;101360.97;;;23.85;69.28
54266;BME280;40836;39.770;2.714;2022-09-09T06:09:02;101363.34;;;23.87;68.51
54266;BME280;40836;39.770;2.714;2022-09-09T06:11:30;101364.56;;;23.89;68.96
54266;BME280;40836;39.770;2.714;2022-09-09T06:13:59;101366.25;;;23.97;68.91
54266;BME280;40836;39.770;2.714;2022-09-09T06:16:27;101353.53;;;23.89;68.89
54266;BME280;40836;39.770;2.714;2022-09-09T06:18:54;101372.31;;;24.07;69.23
54266;BME280;40836;39.770;2.714;2022-09-09T06:21:25;101371.97;;;24.12;68.96
54266;BME280;40836;39.770;2.714;2022-09-09T06:23:50;101375.19;;;24.17;69.08
54266;BME280;40836;39.770;2.714;2022-09-09T06:26:21;101375.69;;;24.23;68.44
54266;BME280;40836;39.770;2.714;2022-09-09T06:28:49;101348.00;;;24.16;69.10
54266;BME280;40836;39.770;2.714;2022-09-09T06:31:17;101376.19;;;24.32;69.24
54266;BME280;40836;39.770;2.714;2022-09-09T06:33:46;101373.59;;;24.43;69.02
54266;BME280;40836;39.770;2.714;2022-09-09T06:36:14;101378.91;;;24.59;68.63
54266;BME280;40836;39.770;2.714;2022-09-09T06:38:43;101375.16;;;24.74;68.20
54266;BME280;40836;39.770;2.714;2022-09-09T06:41:09;101364.94;;;24.78;67.78
54266;BME280;40836;39.770;2.714;2022-09-09T06:43:35;101378.91;;;24.96;67.82
54266;BME280;40836;39.770;2.714;2022-09-09T06:46:03;101387.69;;;25.05;67.79
54266;BME280;40836;39.770;2.714;2022-09-09T06:48:29;101380.00;;;25.22;67.81
54266;BME280;40836;39.770;2.714;2022-09-09T06:51:03;101379.28;;;25.32;67.37
54266;BME280;40836;39.770;2.714;2022-09-09T06:53:29;101377.38;;;25.36;67.62
54266;BME280;40836;39.770;2.714;2022-09-09T06:55:54;101372.63;;;25.33;67.10
54266;BME280;40836;39.770;2.714;2022-09-09T06:58:20;101385.31;;;25.45;66.92
54266;BME280;40836;39.770;2.714;2022-09-09T07:00:47;101381.47;;;25.53;67.53
54266;BME280;40836;39.770;2.714;2022-09-09T07:03:13;101386.25;;;25.59;67.12
54266;BME280;40836;39.770;2.714;2022-09-09T07:05:38;101363.00;;;25.68;66.86
54266;BME280;40836;39.770;2.714;2022-09-09T07:08:04;101380.47;;;25.79;65.91
54266;BME280;40836;39.770;2.714;2022-09-09T07:10:29;101390.47;;;25.94;65.36
54266;BME280;40836;39.770;2.714;2022-09-09T07:12:55;101389.75;;;26.08;64.32
54266;BME280;40836;39.770;2.714;2022-09-09T07:15:20;101389.47;;;26.27;63.63
54266;BME280;40836;39.770;2.714;2022-09-09T07:17:48;101383.63;;;26.43;63.21
54266;BME280;40836;39.770;2.714;2022-09-09T07:20:14;101380.16;;;26.61;62.99
54266;BME280;40836;39.770;2.714;2022-09-09T07:22:40;101385.38;;;26.84;62.63
54266;BME280;40836;39.770;2.714;2022-09-09T07:25:06;101390.56;;;27.03;61.64
54266;BME280;40836;39.770;2.714;2022-09-09T07:27:32;101389.03;;;27.20;60.76
54266;BME280;40836;39.770;2.714;2022-09-09T07:29:57;101368.88;;;27.27;60.57
54266;BME280;40836;39.770;2.714;2022-09-09T07:32:23;101379.16;;;27.51;59.70
54266;BME280;40836;39.770;2.714;2022-09-09T07:34:50;101392.59;;;27.71;58.77
54266;BME280;40836;39.770;2.714;2022-09-09T07:37:16;101392.63;;;27.88;58.46
54266;BME280;40836;39.770;2.714;2022-09-09T07:39:42;101396.94;;;28.04;58.31
54266;BME280;40836;39.770;2.714;2022-09-09T07:42:08;101390.94;;;28.16;56.97
54266;BME280;40836;39.770;2.714;2022-09-09T07:44:36;101399.63;;;28.29;57.21
54266;BME280;40836;39.770;2.714;2022-09-09T07:47:04;101404.78;;;28.41;56.18
54266;BME280;40836;39.770;2.714;2022-09-09T07:49:30;101412.66;;;28.57;55.12
54266;BME280;40836;39.770;2.714;2022-09-09T07:51:55;101411.44;;;28.65;55.24
54266;BME280;40836;39.770;2.714;2022-09-09T07:54:21;101422.88;;;28.74;54.51
54266;BME280;40836;39.770;2.714;2022-09-09T07:56:49;101417.66;;;28.87;55.07
54266;BME280;40836;39.770;2.714;2022-09-09T07:59:15;101421.56;;;28.97;53.91
54266;BME280;40836;39.770;2.714;2022-09-09T08:01:51;101427.13;;;29.04;53.62
54266;BME280;40836;39.770;2.714;2022-09-09T08:04:20;101423.47;;;29.14;52.46
54266;BME280;40836;39.770;2.714;2022-09-09T08:06:50;101428.63;;;29.16;53.17
54266;BME280;40836;39.770;2.714;2022-09-09T08:09:16;101419.47;;;29.19;55.26
54266;BME280;40836;39.770;2.714;2022-09-09T08:11:42;101424.50;;;29.38;55.03
54266;BME280;40836;39.770;2.714;2022-09-09T08:14:09;101426.34;;;29.52;54.68
54266;BME280;40836;39.770;2.714;2022-09-09T08:16:38;101427.50;;;29.58;54.99
54266;BME280;40836;39.770;2.714;2022-09-09T08:19:04;101413.25;;;29.56;54.95
54266;BME280;40836;39.770;2.714;2022-09-09T08:21:32;101411.94;;;29.71;55.64
54266;BME280;40836;39.770;2.714;2022-09-09T08:23:59;101425.63;;;29.93;55.26
54266;BME280;40836;39.770;2.714;2022-09-09T08:26:27;101429.34;;;29.79;55.82
54266;BME280;40836;39.770;2.714;2022-09-09T08:28:56;101432.81;;;29.90;55.95
54266;BME280;40836;39.770;2.714;2022-09-09T08:31:30;101432.22;;;30.10;55.08
54266;BME280;40836;39.770;2.714;2022-09-09T08:33:56;101424.25;;;30.12;55.63
54266;BME280;40836;39.770;2.714;2022-09-09T08:36:25;101427.38;;;30.17;55.43
54266;BME280;40836;39.770;2.714;2022-09-09T08:38:53;101439.25;;;30.25;55.17
54266;BME280;40836;39.770;2.714;2022-09-09T08:44:12;101417.69;;;30.33;55.57
54266;BME280;40836;39.770;2.714;2022-09-09T08:50:05;101440.16;;;30.49;54.69
54266;BME280;40836;39.770;2.714;2022-09-09T08:55:29;101425.88;;;30.47;55.38
54266;BME280;40836;39.770;2.714;2022-09-09T08:58:04;101412.13;;;30.33;54.96
54266;BME280;40836;39.770;2.714;2022-09-09T09:00:42;101432.56;;;30.53;55.07
54266;BME280;40836;39.770;2.714;2022-09-09T09:03:18;101437.69;;;30.55;55.33
54266;BME280;40836;39.770;2.714;2022-09-09T09:05:56;101436.38;;;30.66;55.32
54266;BME280;40836;39.770;2.714;2022-09-09T09:10:55;101437.25;;;30.60;55.23
54266;BME280;40836;39.770;2.714;2022-09-09T09:14:03;101442.69;;;30.71;55.49
54266;BME280;40836;39.770;2.714;2022-09-09T09:16:54;101427.97;;;30.70;56.25
54266;BME280;40836;39.770;2.714;2022-09-09T09:19:22;101438.63;;;30.79;56.06
54266;BME280;40836;39.770;2.714;2022-09-09T09:22:06;101439.38;;;30.83;55.15
54266;BME280;40836;39.770;2.714;2022-09-09T09:27:36;101440.16;;;30.83;55.84
54266;BME280;40836;39.770;2.714;2022-09-09T09:30:12;101441.88;;;30.70;53.97
54266;BME280;40836;39.770;2.714;2022-09-09T09:32:42;101454.97;;;30.73;54.76
54266;BME280;40836;39.770;2.714;2022-09-09T09:35:12;101440.16;;;30.83;54.33
54266;BME280;40836;39.770;2.714;2022-09-09T09:37:40;101444.44;;;30.91;54.58
54266;BME280;40836;39.770;2.714;2022-09-09T09:40:09;101450.34;;;30.94;54.35
54266;BME280;40836;39.770;2.714;2022-09-09T09:42:35;101436.59;;;30.83;53.49
54266;BME280;40836;39.770;2.714;2022-09-09T09:48:04;101453.91;;;30.94;53.86
54266;BME280;40836;39.770;2.714;2022-09-09T09:50:31;101453.56;;;30.92;54.45
54266;BME280;40836;39.770;2.714;2022-09-09T09:52:59;101453.13;;;30.94;53.69
54266;BME280;40836;39.770;2.714;2022-09-09T09:55:28;101443.66;;;30.87;54.78
54266;BME280;40836;39.770;2.714;2022-09-09T09:58:13;101447.94;;;30.96;54.57
54266;BME280;40836;39.770;2.714;2022-09-09T10:00:48;101449.63;;;30.89;55.01
54266;BME280;40836;39.770;2.714;2022-09-09T10:05:52;101456.63;;;31.01;53.78
54266;BME280;40836;39.770;2.714;2022-09-09T10:08:18;101451.34;;;31.07;54.05
54266;BME280;40836;39.770;2.714;2022-09-09T10:16:06;101456.16;;;31.06;54.73
54266;BME280;40836;39.770;2.714;2022-09-09T10:18:59;101438.91;;;30.88;55.05
54266;BME280;40836;39.770;2.714;2022-09-09T10:38:16;101455.25;;;30.86;55.27
54266;BME280;40836;39.770;2.714;2022-09-09T10:46:23;101464.44;;;30.83;56.83
54266;BME280;40836;39.770;2.714;2022-09-09T10:57:06;101456.97;;;30.73;55.73
54266;BME280;40836;39.770;2.714;2022-09-09T10:59:40;101446.25;;;30.71;55.55
54266;BME280;40836;39.770;2.714;2022-09-09T11:02:15;101459.44;;;30.67;55.95
54266;BME280;40836;39.770;2.714;2022-09-09T11:04:49;101458.34;;;30.57;56.89
54266;BME280;40836;39.770;2.714;2022-09-09T11:07:40;101453.16;;;30.59;55.83
54266;BME280;40836;39.770;2.714;2022-09-09T11:12:56;101453.91;;;30.63;56.78
54266;BME280;40836;39.770;2.714;2022-09-09T11:15:33;101451.41;;;30.73;55.81
54266;BME280;40836;39.770;2.714;2022-09-09T11:18:01;101455.44;;;30.68;56.20
54266;BME280;40836;39.770;2.714;2022-09-09T11:20:29;101460.91;;;30.79;56.17
54266;BME280;40836;39.770;2.714;2022-09-09T11:23:12;101456.84;;;30.83;55.93
54266;BME280;40836;39.770;2.714;2022-09-09T11:25:52;101450.56;;;30.76;56.28
54266;BME280;40836;39.770;2.714;2022-09-09T11:31:16;101453.66;;;30.85;55.91
54266;BME280;40836;39.770;2.714;2022-09-09T11:41:52;101438.25;;;30.77;56.59
54266;BME280;40836;39.770;2.714;2022-09-09T11:44:29;101458.81;;;30.86;56.88
54266;BME280;40836;39.770;2.714;2022-09-09T11:46:55;101463.09;;;30.91;56.70
54266;BME280;40836;39.770;2.714;2022-09-09T11:49:29;101467.13;;;30.90;56.43
54266;BME280;40836;39.770;2.714;2022-09-09T11:54:54;101461.94;;;30.92;56.51
54266;BME280;40836;39.770;2.714;2022-09-09T11:57:40;101468.00;;;30.83;55.91
54266;BME280;40836;39.770;2.714;2022-09-09T12:00:27;101466.09;;;30.77;56.25
54266;BME280;40836;39.770;2.714;2022-09-09T12:02:52;101461.03;;;30.64;56.28
54266;BME280;40836;39.770;2.714;2022-09-09T12:05:18;101471.53;;;30.53;57.11
54266;BME280;40836;39.770;2.714;2022-09-09T12:07:56;101463.81;;;30.34;56.94
54266;BME280;40836;39.770;2.714;2022-09-09T12:10:30;101459.97;;;30.55;56.90
54266;BME280;40836;39.770;2.714;2022-09-09T12:13:22;101456.25;;;30.68;56.83
54266;BME280;40836;39.770;2.714;2022-09-09T12:15:57;101462.94;;;30.71;56.49
54266;BME280;40836;39.770;2.714;2022-09-09T12:18:35;101465.69;;;30.78;56.35
54266;BME280;40836;39.770;2.714;2022-09-09T12:23:55;101466.94;;;30.70;56.25
54266;BME280;40836;39.770;2.714;2022-09-09T12:34:36;101457.69;;;30.80;56.38
54266;BME280;40836;39.770;2.714;2022-09-09T12:37:34;101430.31;;;30.72;55.94
54266;BME280;40836;39.770;2.714;2022-09-09T12:42:44;101442.22;;;30.76;55.59
54266;BME280;40836;39.770;2.714;2022-09-09T12:45:21;101445.00;;;30.76;55.45
54266;BME280;40836;39.770;2.714;2022-09-09T12:47:57;101453.28;;;30.83;55.18
54266;BME280;40836;39.770;2.714;2022-09-09T12:50:29;101443.19;;;30.62;55.56
54266;BME280;40836;39.770;2.714;2022-09-09T12:52:57;101433.59;;;30.66;55.26
54266;BME280;40836;39.770;2.714;2022-09-09T12:55:35;101443.06;;;30.73;55.71
54266;BME280;40836;39.770;2.714;2022-09-09T12:58:02;101440.19;;;30.80;55.03
54266;BME280;40836;39.770;2.714;2022-09-09T13:00:32;101446.22;;;30.78;55.97
54266;BME280;40836;39.770;2.714;2022-09-09T13:03:00;101431.47;;;30.78;55.33
54266;BME280;40836;39.770;2.714;2022-09-09T13:05:28;101433.09;;;30.72;55.46
54266;BME280;40836;39.770;2.714;2022-09-09T13:08:08;101440.22;;;30.76;55.21
54266;BME280;40836;39.770;2.714;2022-09-09T13:10:46;101429.13;;;30.73;55.36
54266;BME280;40836;39.770;2.714;2022-09-09T13:13:17;101437.38;;;30.83;54.90
54266;BME280;40836;39.770;2.714;2022-09-09T13:15:56;101438.94;;;30.84;54.95
54266;BME280;40836;39.770;2.714;2022-09-09T13:18:27;101438.16;;;30.84;54.72
54266;BME280;40836;39.770;2.714;2022-09-09T13:20:54;101431.88;;;30.76;54.88
54266;BME280;40836;39.770;2.714;2022-09-09T13:23:26;101433.97;;;30.68;54.93
54266;BME280;40836;39.770;2.714;2022-09-09T13:25:57;101438.66;;;30.75;54.91
54266;BME280;40836;39.770;2.714;2022-09-09T13:28:26;101445.19;;;30.61;55.02
54266;BME280;40836;39.770;2.714;2022-09-09T13:31:18;101444.38;;;30.61;55.50
54266;BME280;40836;39.770;2.714;2022-09-09T13:33:44;101445.97;;;30.62;56.11
54266;BME280;40836;39.770;2.714;2022-09-09T13:36:11;101437.06;;;30.74;54.92
54266;BME280;40836;39.770;2.714;2022-09-09T13:38:53;101438.28;;;30.73;54.60
54266;BME280;40836;39.770;2.714;2022-09-09T13:41:43;101437.94;;;30.67;55.11
54266;BME280;40836;39.770;2.714;2022-09-09T13:44:19;101427.13;;;30.77;54.80
54266;BME280;40836;39.770;2.714;2022-09-09T13:46:45;101405.84;;;30.59;54.82
54266;BME280;40836;39.770;2.714;2022-09-09T13:51:44;101422.50;;;30.63;54.90
54266;BME280;40836;39.770;2.714;2022-09-09T13:54:14;101411.78;;;30.61;54.99
54266;BME280;40836;39.770;2.714;2022-09-09T13:56:41;101410.09;;;30.67;54.77
54266;BME280;40836;39.770;2.714;2022-09-09T13:59:12;101396.13;;;30.71;55.13
54266;BME280;40836;39.770;2.714;2022-09-09T14:01:38;101406.91;;;30.69;54.71
54266;BME280;40836;39.770;2.714;2022-09-09T14:04:04;101389.50;;;30.61;54.87
54266;BME280;40836;39.770;2.714;2022-09-09T14:06:34;101393.16;;;30.55;54.88
54266;BME280;40836;39.770;2.714;2022-09-09T14:09:04;101400.91;;;30.71;55.35
54266;BME280;40836;39.770;2.714;2022-09-09T14:11:29;101390.38;;;30.55;55.58
54266;BME280;40836;39.770;2.714;2022-09-09T14:13:54;101405.25;;;30.72;55.66
54266;BME280;40836;39.770;2.714;2022-09-09T14:16:21;101389.22;;;30.52;55.55
54266;BME280;40836;39.770;2.714;2022-09-09T14:18:46;101408.19;;;30.61;55.63
54266;BME280;40836;39.770;2.714;2022-09-09T14:21:12;101412.28;;;30.53;55.53
54266;BME280;40836;39.770;2.714;2022-09-09T14:23:38;101410.63;;;30.59;55.65
54266;BME280;40836;39.770;2.714;2022-09-09T14:26:07;101410.63;;;30.59;55.37
54266;BME280;40836;39.770;2.714;2022-09-09T14:28:33;101412.84;;;30.71;54.77
54266;BME280;40836;39.770;2.714;2022-09-09T14:31:00;101410.84;;;30.72;55.05
54266;BME280;40836;39.770;2.714;2022-09-09T14:33:26;101411.22;;;30.74;54.57
54266;BME280;40836;39.770;2.714;2022-09-09T14:36:01;101418.06;;;30.69;55.00
54266;BME280;40836;39.770;2.714;2022-09-09T14:38:32;101420.84;;;30.69;54.80
54266;BME280;40836;39.770;2.714;2022-09-09T14:40:59;101418.75;;;30.77;54.83
54266;BME280;40836;39.770;2.714;2022-09-09T14:43:25;101412.38;;;30.76;54.97
54266;BME280;40836;39.770;2.714;2022-09-09T14:45:52;101414.31;;;30.83;55.07
54266;BME280;40836;39.770;2.714;2022-09-09T14:48:17;101421.44;;;30.84;54.78
54266;BME280;40836;39.770;2.714;2022-09-09T14:50:43;101409.84;;;30.89;54.50
54266;BME280;40836;39.770;2.714;2022-09-09T14:53:09;101411.06;;;30.88;54.73
54266;BME280;40836;39.770;2.714;2022-09-09T14:55:35;101409.00;;;30.92;54.32
54266;BME280;40836;39.770;2.714;2022-09-09T14:58:01;101403.84;;;30.90;54.02
54266;BME280;40836;39.770;2.714;2022-09-09T15:00:26;101389.25;;;30.83;54.19
54266;BME280;40836;39.770;2.714;2022-09-09T15:02:53;101403.06;;;30.90;53.83
54266;BME280;40836;39.770;2.714;2022-09-09T15:05:19;101402.34;;;30.86;54.48
54266;BME280;40836;39.770;2.714;2022-09-09T15:07:44;101402.72;;;30.88;54.32
54266;BME280;40836;39.770;2.714;2022-09-09T15:10:10;101386.91;;;30.78;53.74
54266;BME280;40836;39.770;2.714;2022-09-09T15:12:36;101401.59;;;30.82;53.64
54266;BME280;40836;39.770;2.714;2022-09-09T15:15:02;101382.16;;;30.75;53.91
54266;BME280;40836;39.770;2.714;2022-09-09T15:17:28;101379.84;;;30.69;53.70
54266;BME280;40836;39.770;2.714;2022-09-09T15:19:53;101388.91;;;30.77;54.13
54266;BME280;40836;39.770;2.714;2022-09-09T15:22:20;101375.91;;;30.67;54.23
54266;BME280;40836;39.770;2.714;2022-09-09T15:24:45;101390.88;;;30.80;54.20
54266;BME280;40836;39.770;2.714;2022-09-09T15:27:11;101396.56;;;30.69;54.36